Time;durP1;ratioP1;P1;durP2;ratioP2;P2;SDS_P1;SDS_P2;PMS_P1;PMS_P2;Temp;Humidity;BMP_temperature;BMP_pressure;BME280_temperature;BME280_humidity;BME280_pressure;Samples;Min_cycle;Max_cycle;Signal;HPM_P1;HPM_P2
2023/06/11 00:01:58;;;;;;;5.20;2.72;;;21.10;99.90;;;;;;4944039;28;20507;-34
2023/06/11 00:04:25;;;;;;;6.18;2.05;;;21.10;99.90;;;;;;4945251;28;20047;-34
2023/06/11 00:06:56;;;;;;;6.45;2.80;;;21.10;99.90;;;;;;4957485;28;20054;-34
2023/06/11 00:09:25;;;;;;;5.00;2.40;;;21.10;99.90;;;;;;4945623;28;20050;-34
2023/06/11 00:11:53;;;;;;;4.68;2.45;;;21.10;99.90;;;;;;4944688;28;20082;-35
2023/06/11 00:14:20;;;;;;;5.93;2.60;;;21.00;99.90;;;;;;4945996;28;20051;-34
2023/06/11 00:16:46;;;;;;;4.85;2.17;;;20.90;99.90;;;;;;4945585;28;20047;-35
2023/06/11 00:19:12;;;;;;;6.70;2.33;;;21.00;99.90;;;;;;4952321;28;20046;-35
2023/06/11 00:21:43;;;;;;;4.43;2.35;;;21.00;99.90;;;;;;4946325;28;20087;-35
2023/06/11 00:24:11;;;;;;;5.32;3.13;;;20.90;99.90;;;;;;4947611;28;20055;-35
2023/06/11 00:26:38;;;;;;;4.55;2.10;;;21.00;99.90;;;;;;4951476;28;21606;-35
2023/06/11 00:29:05;;;;;;;5.88;2.70;;;21.00;99.90;;;;;;4952864;28;20425;-34
2023/06/11 00:31:30;;;;;;;4.95;2.35;;;20.90;99.90;;;;;;4945722;28;20048;-34
2023/06/11 00:33:56;;;;;;;9.15;2.55;;;21.00;99.90;;;;;;4948971;28;20074;-34
2023/06/11 00:36:25;;;;;;;4.28;2.30;;;21.00;99.90;;;;;;4950056;28;20385;-34
2023/06/11 00:38:51;;;;;;;4.55;2.65;;;20.90;99.90;;;;;;4951148;28;20051;-34
2023/06/11 00:41:16;;;;;;;8.05;2.83;;;20.90;99.90;;;;;;4948036;28;20171;-34
2023/06/11 00:43:42;;;;;;;3.92;2.30;;;20.90;99.90;;;;;;4949433;28;20062;-34
2023/06/11 00:46:10;;;;;;;3.97;2.35;;;20.90;99.90;;;;;;4953019;28;20043;-34
2023/06/11 00:48:40;;;;;;;4.78;2.85;;;20.90;99.90;;;;;;4949295;28;20401;-34
2023/06/11 00:51:06;;;;;;;5.70;3.00;;;20.80;99.90;;;;;;4947817;28;20134;-34
2023/06/11 00:53:32;;;;;;;5.00;2.90;;;20.80;99.90;;;;;;4933178;29;20054;-34
2023/06/11 00:55:57;;;;;;;6.72;3.03;;;20.70;99.90;;;;;;4945933;28;20067;-34
2023/06/11 00:58:23;;;;;;;5.03;3.22;;;20.70;99.90;;;;;;4932208;28;20062;-34
2023/06/11 01:00:58;;;;;;;6.13;3.42;;;20.60;99.90;;;;;;4947461;28;20532;-34
2023/06/11 01:03:28;;;;;;;5.38;2.70;;;20.60;99.90;;;;;;4952658;28;20105;-34
2023/06/11 01:06:11;;;;;;;6.53;3.65;;;20.50;99.90;;;;;;4946951;28;20090;-35
2023/06/11 01:08:38;;;;;;;6.18;3.50;;;20.50;99.90;;;;;;4926405;28;20062;-34
2023/06/11 01:11:17;;;;;;;6.80;3.50;;;20.50;99.90;;;;;;4951216;28;20055;-34
2023/06/11 01:13:43;;;;;;;5.68;3.13;;;20.50;99.90;;;;;;4948072;28;20085;-34
2023/06/11 01:16:28;;;;;;;6.22;3.53;;;20.50;99.90;;;;;;4948486;28;20047;-34
2023/06/11 01:18:58;;;;;;;6.35;3.50;;;20.50;99.90;;;;;;4942382;28;20059;-34
2023/06/11 01:21:33;;;;;;;7.72;3.67;;;20.50;99.90;;;;;;4950903;28;20078;-34
2023/06/11 01:24:18;;;;;;;5.65;3.53;;;20.40;99.90;;;;;;4946829;28;20058;-34
2023/06/11 01:27:04;;;;;;;8.77;4.10;;;20.40;99.90;;;;;;4945937;28;20162;-34
2023/06/11 01:29:31;;;;;;;5.88;4.25;;;20.40;99.90;;;;;;4955333;28;20059;-34
2023/06/11 01:31:59;;;;;;;5.32;4.07;;;20.40;99.90;;;;;;4950650;28;20055;-34
2023/06/11 01:34:25;;;;;;;5.38;3.47;;;20.40;99.90;;;;;;4951082;28;20059;-35
2023/06/11 01:36:51;;;;;;;6.50;4.35;;;20.40;99.90;;;;;;4949613;28;20098;-34
2023/06/11 01:39:16;;;;;;;9.73;5.53;;;20.30;99.90;;;;;;4949051;28;20043;-34
2023/06/11 01:41:42;;;;;;;6.05;4.00;;;20.30;99.90;;;;;;4950496;28;20061;-34
2023/06/11 01:44:08;;;;;;;6.50;4.28;;;20.30;99.90;;;;;;4947868;28;20123;-35
2023/06/11 01:46:33;;;;;;;8.73;3.95;;;20.30;99.90;;;;;;4949507;28;20047;-34
2023/06/11 01:48:59;;;;;;;5.88;4.05;;;20.20;99.90;;;;;;4908254;28;20138;-34
2023/06/11 01:51:25;;;;;;;8.95;5.10;;;20.20;99.90;;;;;;4947083;28;20565;-35
2023/06/11 01:53:51;;;;;;;7.32;4.53;;;20.20;99.90;;;;;;4945824;28;20481;-35
2023/06/11 01:56:17;;;;;;;11.05;4.65;;;20.10;99.90;;;;;;4931578;29;20051;-34
2023/06/11 01:58:45;;;;;;;7.85;4.32;;;20.10;99.90;;;;;;4949582;28;20059;-35
2023/06/11 02:01:11;;;;;;;7.60;5.05;;;20.10;99.90;;;;;;4943107;28;20062;-35
2023/06/11 02:03:36;;;;;;;5.40;4.10;;;20.10;99.90;;;;;;4950165;28;20042;-35
2023/06/11 02:06:02;;;;;;;7.75;4.50;;;20.10;99.90;;;;;;4945095;28;20063;-35
2023/06/11 02:08:27;;;;;;;6.00;4.07;;;20.10;99.90;;;;;;4946560;28;20039;-35
2023/06/11 02:10:53;;;;;;;6.25;4.70;;;20.10;99.90;;;;;;4943096;28;20052;-34
2023/06/11 02:13:19;;;;;;;8.27;4.90;;;20.00;99.90;;;;;;4946485;28;20055;-35
2023/06/11 02:15:45;;;;;;;9.65;4.95;;;20.00;99.90;;;;;;4949292;28;20762;-35
2023/06/11 02:18:10;;;;;;;6.15;4.93;;;19.90;99.90;;;;;;4947316;28;20063;-35
2023/06/11 02:20:36;;;;;;;5.97;4.93;;;19.90;99.90;;;;;;4927315;28;20429;-35
2023/06/11 02:23:03;;;;;;;7.72;5.80;;;19.90;99.90;;;;;;4947001;28;20063;-35
2023/06/11 02:25:29;;;;;;;10.38;5.20;;;19.80;99.90;;;;;;4944465;28;20047;-35
2023/06/11 02:27:54;;;;;;;6.75;5.05;;;19.80;99.90;;;;;;4948809;28;20047;-35
2023/06/11 02:30:20;;;;;;;6.57;4.78;;;19.80;99.90;;;;;;4946136;28;20062;-35
2023/06/11 02:32:46;;;;;;;6.05;4.57;;;19.70;99.90;;;;;;4946716;28;20091;-35
2023/06/11 02:35:11;;;;;;;5.80;4.57;;;19.70;99.90;;;;;;4940848;28;20066;-35
2023/06/11 02:37:37;;;;;;;6.43;5.05;;;19.70;99.90;;;;;;4947821;28;20051;-35
2023/06/11 02:40:03;;;;;;;7.13;5.07;;;19.70;99.90;;;;;;4933716;28;20054;-35
2023/06/11 02:42:28;;;;;;;5.82;4.70;;;19.60;99.90;;;;;;4948582;28;20468;-35
2023/06/11 02:44:54;;;;;;;5.55;4.50;;;19.60;99.90;;;;;;4945638;28;20047;-34
2023/06/11 02:47:20;;;;;;;7.15;5.07;;;19.60;99.90;;;;;;4948620;28;20382;-35
2023/06/11 02:49:45;;;;;;;6.32;4.70;;;19.60;99.90;;;;;;4943062;28;20059;-35
2023/06/11 02:52:11;;;;;;;5.80;4.28;;;19.50;99.90;;;;;;4944741;28;20461;-35
2023/06/11 02:54:36;;;;;;;6.47;4.68;;;19.50;99.90;;;;;;4941538;28;20159;-35
2023/06/11 02:57:02;;;;;;;7.93;3.83;;;19.50;99.90;;;;;;4946557;28;20055;-35
2023/06/11 02:59:28;;;;;;;9.02;4.30;;;19.50;99.90;;;;;;4942011;28;20156;-35
2023/06/11 03:01:54;;;;;;;7.80;5.10;;;19.50;99.90;;;;;;4941277;28;20051;-36
2023/06/11 03:04:20;;;;;;;6.75;4.90;;;19.50;99.90;;;;;;4946832;28;20078;-35
2023/06/11 03:06:46;;;;;;;7.43;4.60;;;19.40;99.90;;;;;;4943249;28;20059;-35
2023/06/11 03:09:11;;;;;;;9.02;5.10;;;19.40;99.90;;;;;;4940313;28;20047;-35
2023/06/11 03:11:37;;;;;;;8.82;5.57;;;19.40;99.90;;;;;;4946591;28;20562;-35
2023/06/11 03:14:02;;;;;;;6.38;4.60;;;19.40;99.90;;;;;;4947874;28;20137;-35
2023/06/11 03:16:28;;;;;;;6.13;3.92;;;19.40;99.90;;;;;;4939366;28;20051;-34
2023/06/11 03:18:54;;;;;;;8.00;4.72;;;19.40;99.90;;;;;;4943847;28;20145;-35
2023/06/11 03:21:19;;;;;;;6.32;4.18;;;19.30;99.90;;;;;;4946428;28;20087;-35
2023/06/11 03:23:45;;;;;;;6.18;4.45;;;19.30;99.90;;;;;;4941919;28;20051;-35
2023/06/11 03:26:11;;;;;;;6.43;4.78;;;19.30;99.90;;;;;;4938845;28;20055;-35
2023/06/11 03:28:36;;;;;;;5.63;4.75;;;19.30;99.90;;;;;;4928629;28;20122;-35
2023/06/11 03:31:02;;;;;;;8.07;4.78;;;19.30;99.90;;;;;;4952435;28;20519;-35
2023/06/11 03:33:28;;;;;;;7.85;5.00;;;19.30;99.90;;;;;;4951184;28;20884;-35
2023/06/11 03:35:53;;;;;;;5.85;4.30;;;19.30;99.90;;;;;;4938049;28;20055;-34
2023/06/11 03:38:19;;;;;;;7.72;5.35;;;19.30;99.90;;;;;;4944273;28;20062;-35
2023/06/11 03:40:44;;;;;;;6.07;4.90;;;19.30;99.90;;;;;;4947657;28;20047;-34
2023/06/11 03:43:10;;;;;;;8.38;4.50;;;19.30;99.90;;;;;;4945047;28;20047;-34
2023/06/11 03:45:36;;;;;;;6.35;4.40;;;19.30;99.90;;;;;;4928063;28;20122;-34
2023/06/11 03:48:04;;;;;;;6.22;4.75;;;19.20;99.90;;;;;;4946819;28;20109;-34
2023/06/11 03:50:30;;;;;;;6.60;5.25;;;19.20;99.90;;;;;;4925796;28;20145;-34
2023/06/11 03:52:55;;;;;;;7.05;4.80;;;19.30;99.90;;;;;;4944693;28;20401;-34
2023/06/11 03:55:21;;;;;;;7.20;5.05;;;;;;;;;;4939587;28;20060;-34
2023/06/11 03:57:47;;;;;;;6.68;4.38;;;;;;;;;;4936999;28;20051;-34
2023/06/11 04:00:14;;;;;;;6.70;4.97;;;;;;;;;;4942857;28;20060;-35
2023/06/11 04:02:40;;;;;;;5.93;4.72;;;;;;;;;;4924494;29;20106;-35
2023/06/11 04:05:06;;;;;;;8.23;5.10;;;;;;;;;;4942565;28;20063;-35
2023/06/11 04:07:33;;;;;;;5.32;4.40;;;;;;;;;;4942620;28;20472;-35
2023/06/11 04:09:59;;;;;;;7.55;4.68;;;;;;;;;;4941624;28;20403;-35
2023/06/11 04:12:26;;;;;;;6.38;4.80;;;;;;;;;;4942899;28;20588;-34
2023/06/11 04:14:52;;;;;;;6.57;4.63;;;;;;;;;;4945596;28;20051;-35
2023/06/11 04:17:18;;;;;;;5.35;4.13;;;;;;;;;;4943366;28;20070;-36
2023/06/11 04:19:44;;;;;;;6.20;4.97;;;;;;;;;;4941806;28;20378;-35
2023/06/11 04:22:10;;;;;;;6.43;4.60;;;;;;;;;;4945119;28;20049;-35
2023/06/11 04:24:36;;;;;;;8.18;4.45;;;;;;;;;;4942447;28;20396;-35
2023/06/11 04:27:02;;;;;;;5.20;3.97;;;;;;;;;;4940789;28;20422;-34
2023/06/11 04:29:29;;;;;;;6.97;4.68;;;;;;;;;;4942302;28;20501;-35
2023/06/11 04:31:56;;;;;;;4.93;3.70;;;;;;;;;;4943023;28;20051;-35
2023/06/11 04:34:29;;;;;;;8.43;5.05;;;;;;;;;;4950561;28;20063;-35
2023/06/11 04:36:55;;;;;;;5.15;4.22;;;;;;;;;;4948109;28;20848;-35
2023/06/11 04:39:20;;;;;;;6.30;4.53;;;19.40;99.90;;;;;;4943243;28;20047;-35
2023/06/11 04:41:47;;;;;;;5.85;4.20;;;19.40;99.90;;;;;;4942940;28;20425;-35
2023/06/11 04:44:12;;;;;;;6.35;4.85;;;19.40;99.90;;;;;;4948921;28;20055;-35
2023/06/11 04:46:40;;;;;;;6.43;4.65;;;19.40;99.90;;;;;;4949094;28;20405;-35
2023/06/11 04:49:06;;;;;;;7.22;5.05;;;19.40;99.90;;;;;;4945869;28;20087;-35
2023/06/11 04:51:33;;;;;;;5.72;4.07;;;19.50;99.90;;;;;;4951119;28;20082;-35
2023/06/11 04:54:07;;;;;;;5.47;3.97;;;19.50;99.90;;;;;;4941559;28;20137;-35
2023/06/11 04:56:33;;;;;;;7.30;4.95;;;19.50;99.90;;;;;;4950730;28;20051;-35
2023/06/11 04:59:01;;;;;;;6.38;4.60;;;19.60;99.90;;;;;;4940991;28;20056;-35
2023/06/11 05:01:30;;;;;;;5.75;4.05;;;19.60;99.90;;;;;;4944207;28;20110;-35
2023/06/11 05:03:56;;;;;;;6.55;4.72;;;19.60;99.90;;;;;;4948132;28;20095;-35
2023/06/11 05:06:23;;;;;;;5.50;4.30;;;19.70;99.90;;;;;;4945540;28;20528;-35
2023/06/11 05:08:50;;;;;;;7.10;5.60;;;19.70;99.90;;;;;;4940963;28;20055;-35
2023/06/11 05:11:16;;;;;;;6.55;4.80;;;19.80;99.90;;;;;;4945030;28;20492;-35
2023/06/11 05:13:42;;;;;;;6.85;4.63;;;19.80;99.90;;;;;;4951281;28;20059;-36
2023/06/11 05:16:08;;;;;;;5.68;4.22;;;19.90;99.90;;;;;;4947141;28;20597;-35
2023/06/11 05:18:33;;;;;;;9.07;5.00;;;20.00;99.90;;;;;;4939404;28;20162;-35
2023/06/11 05:20:59;;;;;;;9.82;5.10;;;20.00;99.90;;;;;;4945349;28;20109;-35
2023/06/11 05:23:31;;;;;;;6.00;4.75;;;20.10;99.90;;;;;;4945406;28;20174;-35
2023/06/11 05:26:11;;;;;;;;;;;20.10;99.90;;;;;;4942072;28;20062;-35
2023/06/11 05:28:40;;;;;;;6.05;4.57;;;20.20;99.90;;;;;;4946306;28;19933;-35
2023/06/11 05:31:09;;;;;;;7.07;5.28;;;20.30;99.90;;;;;;4936863;28;20533;-35
2023/06/11 05:33:34;;;;;;;6.93;4.63;;;20.40;99.90;;;;;;4948243;28;20047;-34
2023/06/11 05:36:00;;;;;;;7.15;5.70;;;20.40;99.90;;;;;;4927209;28;20082;-34
2023/06/11 05:38:26;;;;;;;6.68;5.47;;;20.60;99.90;;;;;;4943904;28;20047;-34
2023/06/11 05:40:51;;;;;;;6.35;4.95;;;20.60;99.90;;;;;;4922531;28;20135;-35
2023/06/11 05:43:17;;;;;;;6.65;4.38;;;20.70;99.90;;;;;;4944278;28;20059;-35
2023/06/11 05:45:49;;;;;;;7.05;5.50;;;20.70;99.90;;;;;;4945356;28;20142;-35
2023/06/11 05:48:18;;;;;;;7.07;5.15;;;20.80;99.90;;;;;;4952342;28;20050;-34
2023/06/11 05:50:44;;;;;;;9.27;5.38;;;20.80;99.90;;;;;;4947496;28;20043;-34
2023/06/11 05:53:10;;;;;;;7.00;5.60;;;20.90;99.90;;;;;;4944993;28;20469;-35
2023/06/11 05:55:37;;;;;;;7.22;5.03;;;21.00;99.90;;;;;;4943670;28;20059;-34
2023/06/11 05:58:04;;;;;;;5.50;4.50;;;21.00;99.90;;;;;;4946300;28;20106;-34
2023/06/11 06:00:29;;;;;;;6.50;5.07;;;21.10;99.90;;;;;;4925080;28;20051;-34
2023/06/11 06:02:55;;;;;;;7.22;5.30;;;21.20;99.90;;;;;;4947362;28;20077;-35
2023/06/11 06:05:21;;;;;;;7.95;5.25;;;21.30;99.90;;;;;;4947063;28;20055;-34
2023/06/11 06:07:47;;;;;;;7.68;5.65;;;21.40;99.90;;;;;;4952035;28;20051;-34
2023/06/11 06:10:13;;;;;;;8.18;6.28;;;21.40;99.90;;;;;;4947538;28;20062;-34
2023/06/11 06:12:39;;;;;;;6.45;5.55;;;21.50;99.90;;;;;;4943800;28;20079;-34
2023/06/11 06:15:06;;;;;;;8.07;4.88;;;21.60;99.90;;;;;;4946078;28;20074;-35
2023/06/11 06:17:32;;;;;;;6.82;5.30;;;21.70;99.90;;;;;;4932174;28;20353;-35
2023/06/11 06:19:57;;;;;;;10.02;5.72;;;21.70;99.90;;;;;;4948542;28;20051;-35
2023/06/11 06:22:23;;;;;;;7.07;5.50;;;21.80;99.90;;;;;;4953533;28;20137;-35
2023/06/11 06:24:48;;;;;;;8.30;5.43;;;21.80;99.90;;;;;;4942672;28;20059;-34
2023/06/11 06:27:14;;;;;;;6.13;5.18;;;21.90;99.90;;;;;;4939792;28;20081;-34
2023/06/11 06:29:40;;;;;;;6.60;5.40;;;21.90;99.90;;;;;;4938908;28;20063;-35
2023/06/11 06:32:06;;;;;;;9.23;5.50;;;22.00;99.90;;;;;;4947163;28;20058;-34
2023/06/11 06:34:32;;;;;;;8.80;5.78;;;22.10;99.90;;;;;;4942493;28;20043;-35
2023/06/11 06:36:58;;;;;;;6.18;5.30;;;22.20;99.90;;;;;;4941874;28;20066;-35
2023/06/11 06:39:23;;;;;;;6.30;5.38;;;22.30;99.90;;;;;;4942680;28;20079;-35
2023/06/11 06:41:49;;;;;;;6.40;4.90;;;22.30;99.90;;;;;;4945160;28;20490;-35
2023/06/11 06:44:15;;;;;;;7.10;5.10;;;22.40;99.90;;;;;;4952226;28;20043;-34
2023/06/11 06:46:40;;;;;;;12.60;5.20;;;22.50;99.90;;;;;;4941970;28;20078;-34
2023/06/11 06:49:06;;;;;;;11.52;5.82;;;22.60;99.90;;;;;;4945855;28;20043;-35
2023/06/11 06:51:32;;;;;;;5.97;4.93;;;22.70;99.90;;;;;;4944797;28;20398;-35
2023/06/11 06:53:58;;;;;;;6.72;4.90;;;22.80;99.90;;;;;;4952319;28;20106;-35
2023/06/11 06:56:24;;;;;;;5.93;4.03;;;22.90;99.90;;;;;;4950237;28;20108;-35
2023/06/11 06:58:50;;;;;;;5.90;4.68;;;23.00;99.90;;;;;;4948743;28;20582;-35
2023/06/11 07:01:16;;;;;;;6.97;4.72;;;23.10;99.90;;;;;;4935356;28;20051;-35
2023/06/11 07:03:42;;;;;;;6.82;5.05;;;23.10;99.90;;;;;;4940113;28;20520;-35
2023/06/11 07:06:08;;;;;;;5.53;4.70;;;23.20;99.90;;;;;;4948981;28;20134;-35
2023/06/11 07:08:34;;;;;;;6.00;4.85;;;23.30;99.90;;;;;;4946409;28;20424;-35
2023/06/11 07:11:00;;;;;;;5.90;4.72;;;23.40;99.90;;;;;;4941335;28;20055;-35
2023/06/11 07:13:25;;;;;;;7.18;5.00;;;23.50;99.90;;;;;;4945172;28;20073;-35
2023/06/11 07:15:51;;;;;;;7.40;5.55;;;23.60;99.90;;;;;;4949232;28;20087;-35
2023/06/11 07:18:17;;;;;;;6.93;5.00;;;23.70;99.90;;;;;;4942710;28;20051;-35
2023/06/11 07:20:44;;;;;;;5.95;4.72;;;23.80;99.90;;;;;;4942099;28;20054;-36
2023/06/11 07:23:10;;;;;;;10.63;4.82;;;23.80;99.90;;;;;;4939418;28;21928;-35
2023/06/11 07:25:37;;;;;;;7.80;4.85;;;23.90;99.90;;;;;;4943327;28;20134;-35
2023/06/11 07:28:04;;;;;;;7.00;4.45;;;24.00;99.90;;;;;;4942975;28;20151;-35
2023/06/11 07:30:32;;;;;;;7.90;4.95;;;24.10;99.90;;;;;;4943870;28;20055;-34
2023/06/11 07:32:59;;;;;;;5.82;5.03;;;24.20;99.90;;;;;;4944515;28;20134;-35
2023/06/11 07:35:25;;;;;;;5.97;4.65;;;24.30;99.90;;;;;;4942854;28;20098;-35
2023/06/11 07:37:51;;;;;;;6.65;4.32;;;24.40;99.90;;;;;;4944362;28;20086;-35
2023/06/11 07:40:17;;;;;;;5.72;5.07;;;24.40;99.90;;;;;;4946591;28;20081;-35
2023/06/11 07:42:43;;;;;;;7.50;4.65;;;24.50;99.90;;;;;;4944227;28;20051;-35
2023/06/11 07:45:10;;;;;;;7.43;4.35;;;24.70;99.90;;;;;;4942019;28;20051;-35
2023/06/11 07:47:36;;;;;;;6.40;4.45;;;24.70;99.90;;;;;;4942714;28;20071;-35
2023/06/11 07:50:03;;;;;;;5.95;4.78;;;24.80;99.90;;;;;;4943168;28;20078;-35
2023/06/11 07:52:29;;;;;;;5.28;4.63;;;24.80;99.90;;;;;;4933115;28;20075;-35
2023/06/11 07:54:55;;;;;;;5.85;4.82;;;24.90;99.90;;;;;;4929016;28;20047;-35
2023/06/11 07:57:21;;;;;;;6.75;4.85;;;25.10;99.90;;;;;;4938861;28;20243;-35
2023/06/11 07:59:47;;;;;;;6.03;4.60;;;25.10;99.90;;;;;;4941046;28;20072;-35
2023/06/11 08:02:14;;;;;;;10.20;5.30;;;25.20;99.90;;;;;;4936561;28;20055;-35
2023/06/11 08:04:40;;;;;;;4.78;3.95;;;25.30;99.90;;;;;;4940950;28;20058;-35
2023/06/11 08:07:07;;;;;;;6.38;5.13;;;25.40;99.90;;;;;;4943738;28;20485;-35
2023/06/11 08:09:36;;;;;;;5.30;4.30;;;25.60;99.90;;;;;;4942034;28;20047;-35
2023/06/11 08:12:06;;;;;;;5.50;4.30;;;25.70;99.90;;;;;;4940727;28;20059;-34
2023/06/11 08:14:35;;;;;;;6.05;4.85;;;25.70;99.90;;;;;;4935240;28;20061;-35
2023/06/11 08:17:02;;;;;;;5.03;4.38;;;25.80;99.90;;;;;;4936786;28;20067;-35
2023/06/11 08:19:28;;;;;;;6.53;4.90;;;25.90;99.90;;;;;;4938345;28;20756;-35
2023/06/11 08:21:55;;;;;;;5.40;4.70;;;26.00;99.90;;;;;;4930783;28;20133;-34
2023/06/11 08:24:21;;;;;;;7.50;5.15;;;26.00;99.90;;;;;;4937512;28;20079;-35
2023/06/11 08:26:47;;;;;;;6.05;4.82;;;26.20;99.90;;;;;;4937975;28;20047;-35
2023/06/11 08:29:14;;;;;;;7.07;4.55;;;26.30;99.90;;;;;;4925755;29;20051;-35
2023/06/11 08:31:40;;;;;;;6.43;4.72;;;26.30;99.90;;;;;;4936856;28;20059;-35
2023/06/11 08:34:05;;;;;;;5.90;4.65;;;26.30;99.90;;;;;;4941379;28;20070;-35
2023/06/11 08:36:31;;;;;;;5.90;4.38;;;26.40;99.90;;;;;;4941106;28;20051;-35
2023/06/11 08:38:57;;;;;;;7.88;4.05;;;26.40;99.90;;;;;;4939107;28;20147;-36
2023/06/11 08:41:23;;;;;;;5.80;4.00;;;26.40;99.90;;;;;;4944426;28;20118;-35
2023/06/11 08:43:49;;;;;;;5.30;4.03;;;26.50;99.90;;;;;;4938199;28;20078;-35
2023/06/11 08:46:15;;;;;;;5.32;4.53;;;26.60;99.90;;;;;;4937032;28;20054;-35
2023/06/11 08:48:43;;;;;;;5.28;4.15;;;26.60;99.90;;;;;;4940905;28;20059;-35
2023/06/11 08:51:10;;;;;;;6.13;4.70;;;26.70;99.90;;;;;;4938116;28;20055;-35
2023/06/11 08:53:39;;;;;;;5.25;4.13;;;26.80;99.90;;;;;;4943356;28;20059;-35
2023/06/11 08:56:08;;;;;;;5.97;4.53;;;27.00;99.90;;;;;;4933744;28;20063;-35
2023/06/11 08:58:35;;;;;;;7.93;4.32;;;27.10;99.90;;;;;;4943556;28;20101;-35
2023/06/11 09:01:13;;;;;;;6.05;4.82;;;27.20;99.90;;;;;;4938715;28;20058;-35
2023/06/11 09:03:38;;;;;;;5.07;4.43;;;27.30;99.90;;;;;;4944440;28;20524;-36
2023/06/11 09:06:05;;;;;;;6.07;4.72;;;27.40;99.90;;;;;;4937937;28;20054;-36
2023/06/11 09:08:31;;;;;;;6.25;4.18;;;27.50;99.90;;;;;;4941934;28;20050;-35
2023/06/11 09:10:57;;;;;;;5.13;4.55;;;27.70;99.90;;;;;;4941773;28;20051;-35
2023/06/11 09:13:27;;;;;;;6.32;3.92;;;27.70;99.90;;;;;;4936037;28;20081;-35
2023/06/11 09:15:55;;;;;;;6.30;4.38;;;27.80;99.90;;;;;;4935312;28;20058;-35
2023/06/11 09:18:22;;;;;;;7.85;4.53;;;27.90;99.90;;;;;;4937975;28;20527;-35
2023/06/11 09:20:52;;;;;;;5.85;4.22;;;28.00;99.90;;;;;;4941525;28;20056;-35
2023/06/11 09:23:33;;;;;;;5.32;4.45;;;28.00;99.90;;;;;;4935968;28;20163;-35
2023/06/11 09:26:00;;;;;;;6.55;4.22;;;28.10;99.90;;;;;;4942325;28;20051;-35
2023/06/11 09:28:33;;;;;;;6.68;3.97;;;28.20;99.90;;;;;;4932531;28;20058;-35
2023/06/11 09:31:00;;;;;;;6.72;4.18;;;28.30;99.90;;;;;;4940754;28;20082;-35
2023/06/11 09:33:28;;;;;;;4.97;4.18;;;28.40;99.90;;;;;;4941166;28;20497;-35
2023/06/11 09:35:54;;;;;;;5.38;4.20;;;28.50;99.90;;;;;;4943290;28;20185;-35
2023/06/11 09:38:21;;;;;;;6.28;4.32;;;28.50;99.90;;;;;;4939431;28;20445;-35
2023/06/11 09:40:49;;;;;;;5.63;4.57;;;28.60;99.90;;;;;;4922724;28;20118;-35
2023/06/11 09:43:18;;;;;;;5.50;4.10;;;28.70;99.90;;;;;;4940923;28;20553;-35
2023/06/11 09:45:43;;;;;;;4.60;3.65;;;28.70;99.90;;;;;;4919705;28;20109;-35
2023/06/11 09:48:12;;;;;;;5.25;4.38;;;28.80;99.90;;;;;;4939541;28;20056;-35
2023/06/11 09:50:38;;;;;;;7.25;3.78;;;29.00;99.90;;;;;;4940453;28;20501;-35
2023/06/11 09:53:05;;;;;;;4.38;3.92;;;29.00;99.90;;;;;;4939484;28;20054;-35
2023/06/11 09:55:35;;;;;;;4.45;3.50;;;29.20;99.90;;;;;;4933507;28;20048;-35
2023/06/11 09:58:02;;;;;;;4.60;3.90;;;29.30;99.90;;;;;;4944693;28;20122;-35
2023/06/11 10:00:28;;;;;;;8.38;4.00;;;29.40;99.90;;;;;;4941590;28;20075;-35
2023/06/11 10:02:54;;;;;;;5.63;3.95;;;29.40;99.90;;;;;;4942938;28;20051;-35
2023/06/11 10:05:20;;;;;;;5.95;3.92;;;29.40;99.90;;;;;;4943937;28;20077;-35
2023/06/11 10:07:55;;;;;;;5.85;4.18;;;29.50;99.90;;;;;;4942461;28;20134;-35
2023/06/11 10:10:22;;;;;;;4.60;3.70;;;29.60;99.90;;;;;;4936399;28;20498;-36
2023/06/11 10:12:52;;;;;;;4.10;3.42;;;29.40;99.90;;;;;;4943715;28;20054;-34
2023/06/11 10:15:18;;;;;;;5.18;4.05;;;29.50;99.90;;;;;;4945442;28;20062;-35
2023/06/11 10:17:49;;;;;;;4.78;4.10;;;29.50;99.90;;;;;;4945217;28;20099;-35
2023/06/11 10:20:19;;;;;;;4.43;3.30;;;29.50;99.90;;;;;;4940992;28;20047;-34
2023/06/11 10:22:45;;;;;;;6.43;3.60;;;29.60;99.90;;;;;;4936193;28;21397;-34
2023/06/11 10:25:12;;;;;;;5.65;3.53;;;29.80;99.90;;;;;;4937656;28;20638;-35
2023/06/11 10:27:42;;;;;;;5.28;3.65;;;29.90;99.90;;;;;;4936103;28;20517;-35
2023/06/11 10:30:08;;;;;;;3.88;3.22;;;30.00;99.90;;;;;;4938623;28;20209;-36
2023/06/11 10:32:34;;;;;;;5.40;3.90;;;30.20;99.90;;;;;;4940708;28;20142;-34
2023/06/11 10:35:06;;;;;;;6.93;3.83;;;30.30;99.90;;;;;;4940976;28;20051;-35
2023/06/11 10:37:31;;;;;;;;;;;30.10;99.90;;;;;;4938130;28;20051;-35
2023/06/11 10:39:58;;;;;;;5.43;3.50;;;30.10;99.90;;;;;;4941480;28;20327;-34
2023/06/11 10:42:27;;;;;;;7.15;3.38;;;30.10;99.90;;;;;;4939240;28;20527;-35
2023/06/11 10:44:57;;;;;;;10.43;4.13;;;30.30;99.90;;;;;;4939581;28;20055;-35
2023/06/11 10:47:23;;;;;;;3.55;3.20;;;30.40;99.90;;;;;;4941704;28;20131;-34
2023/06/11 10:49:49;;;;;;;5.03;3.55;;;30.40;99.90;;;;;;4941615;28;20488;-35
2023/06/11 10:52:15;;;;;;;4.70;3.72;;;30.50;99.90;;;;;;4938692;28;20887;-36
2023/06/11 10:54:42;;;;;;;4.47;3.40;;;30.60;99.90;;;;;;4941374;28;20107;-35
2023/06/11 10:57:08;;;;;;;6.43;2.90;;;30.70;99.90;;;;;;4944451;28;20489;-35
2023/06/11 10:59:34;;;;;;;4.03;3.47;;;30.70;99.90;;;;;;4941075;28;20063;-35
2023/06/11 11:02:00;;;;;;;5.90;3.78;;;30.90;99.90;;;;;;4941177;28;20047;-35
2023/06/11 11:04:26;;;;;;;5.78;3.60;;;30.90;99.90;;;;;;4939353;28;20126;-35
2023/06/11 11:07:03;;;;;;;5.05;3.65;;;30.90;99.90;;;;;;4927908;28;20097;-35
2023/06/11 11:09:29;;;;;;;4.25;2.97;;;31.00;99.90;;;;;;4942018;28;20732;-36
2023/06/11 11:11:58;;;;;;;4.93;3.13;;;31.00;99.90;;;;;;4936820;28;20051;-35
2023/06/11 11:14:27;;;;;;;4.60;3.10;;;31.10;99.90;;;;;;4917336;28;20501;-35
2023/06/11 11:16:53;;;;;;;4.63;3.60;;;31.10;99.90;;;;;;4937975;28;20050;-35
2023/06/11 11:19:25;;;;;;;3.83;2.65;;;31.10;99.90;;;;;;4917827;28;20063;-35
2023/06/11 11:21:51;;;;;;;;;;;31.20;99.90;;;;;;4938426;28;20058;-35
2023/06/11 11:24:17;;;;;;;5.57;3.05;;;31.20;99.90;;;;;;4920809;28;19919;-35
2023/06/11 11:26:44;;;;;;;7.97;3.45;;;31.30;99.90;;;;;;4938127;28;20046;-35
2023/06/11 11:29:09;;;;;;;3.85;3.10;;;31.40;99.90;;;;;;4939417;28;20386;-35
2023/06/11 11:31:38;;;;;;;3.63;3.17;;;31.50;99.90;;;;;;4932498;28;20066;-35
2023/06/11 11:34:03;;;;;;;4.63;2.95;;;31.70;99.90;;;;;;4942073;28;20145;-35
2023/06/11 11:36:31;;;;;;;3.83;3.22;;;31.80;99.90;;;;;;4938112;28;20086;-35
2023/06/11 11:38:57;;;;;;;6.63;3.22;;;31.90;99.90;;;;;;4939349;28;20561;-35
2023/06/11 11:41:23;;;;;;;5.65;4.00;;;31.90;99.90;;;;;;4939406;28;20043;-36
2023/06/11 11:43:50;;;;;;;5.43;3.75;;;32.00;99.90;;;;;;4941033;28;20085;-35
2023/06/11 11:46:20;;;;;;;4.95;3.28;;;32.10;99.90;;;;;;4935911;28;20555;-35
2023/06/11 11:48:47;;;;;;;5.35;3.78;;;32.30;99.90;;;;;;4938721;28;20054;-35
2023/06/11 11:51:15;;;;;;;3.90;3.10;;;32.20;99.90;;;;;;4931667;28;20132;-35
2023/06/11 11:53:41;;;;;;;4.95;3.60;;;32.30;99.90;;;;;;4919706;28;20051;-35
2023/06/11 11:56:07;;;;;;;3.63;3.25;;;32.30;99.90;;;;;;4932938;28;20050;-35
2023/06/11 11:58:38;;;;;;;5.18;3.40;;;32.40;99.90;;;;;;4937218;28;20153;-35
2023/06/11 12:01:04;;;;;;;5.17;3.40;;;32.40;99.90;;;;;;4939239;28;20449;-35
2023/06/11 12:03:30;;;;;;;3.72;3.35;;;32.50;99.90;;;;;;4921428;28;22799;-35
2023/06/11 12:05:58;;;;;;;7.55;3.42;;;32.50;99.90;;;;;;4938754;28;20054;-35
2023/06/11 12:08:25;;;;;;;4.10;3.15;;;32.40;99.90;;;;;;4941548;28;20051;-35
2023/06/11 12:10:51;;;;;;;4.72;3.40;;;32.30;99.90;;;;;;4942978;28;20051;-35
2023/06/11 12:13:16;;;;;;;3.78;3.25;;;32.20;99.90;;;;;;4944007;28;20480;-35
2023/06/11 12:15:42;;;;;;;4.45;3.38;;;32.20;99.90;;;;;;4942236;28;20405;-35
2023/06/11 12:18:08;;;;;;;5.10;3.38;;;32.20;99.90;;;;;;4946359;28;20113;-35
2023/06/11 12:20:33;;;;;;;5.18;2.92;;;32.20;99.90;;;;;;4946758;28;20051;-35
2023/06/11 12:22:59;;;;;;;3.22;2.75;;;32.30;99.90;;;;;;4945573;28;20941;-35
2023/06/11 12:25:25;;;;;;;4.10;3.42;;;32.30;99.90;;;;;;4943160;28;20066;-35
2023/06/11 12:27:52;;;;;;;4.57;3.42;;;32.30;99.90;;;;;;4944479;28;20059;-36
2023/06/11 12:30:17;;;;;;;8.63;3.08;;;32.20;99.90;;;;;;4945453;28;20493;-35
2023/06/11 12:32:43;;;;;;;8.10;3.38;;;32.30;99.90;;;;;;4943274;28;20062;-35
2023/06/11 12:35:09;;;;;;;4.40;3.65;;;32.30;99.90;;;;;;4943899;28;20105;-35
2023/06/11 12:37:36;;;;;;;5.95;3.53;;;32.30;99.90;;;;;;4945727;28;20054;-35
2023/06/11 12:40:05;;;;;;;4.55;3.42;;;32.40;99.90;;;;;;4944471;28;20047;-35
2023/06/11 12:42:33;;;;;;;5.35;3.17;;;32.40;99.90;;;;;;4943259;28;20055;-35
2023/06/11 12:45:00;;;;;;;7.18;3.30;;;32.40;99.90;;;;;;4944145;28;20036;-35
2023/06/11 12:47:25;;;;;;;4.78;3.05;;;32.40;99.90;;;;;;4942406;28;20126;-35
2023/06/11 12:49:52;;;;;;;3.78;3.33;;;32.50;99.90;;;;;;4946267;28;20483;-35
2023/06/11 12:52:18;;;;;;;5.03;3.22;;;32.50;99.90;;;;;;4942885;28;20059;-35